Time;durP1;ratioP1;P1;durP2;ratioP2;P2;SDS_P1;SDS_P2;PMS_P1;PMS_P2;Temp;Humidity;BMP_temperature;BMP_pressure;BME280_temperature;BME280_humidity;BME280_pressure;Samples;Min_cycle;Max_cycle;Signal;HPM_P1;HPM_P2
2022/11/28 00:01:52;;;;;;;0.08;0.00;;;;;;;6.07;100.00;100810.50;5220099;28;20044;-79
2022/11/28 00:04:23;;;;;;;0.03;0.00;;;;;;;6.08;100.00;100801.63;5223050;28;20491;-79
2022/11/28 00:06:55;;;;;;;0.00;0.00;;;;;;;6.11;100.00;100805.03;5220368;28;20037;-79
2022/11/28 00:09:26;;;;;;;0.47;0.03;;;;;;;6.11;100.00;100802.41;5220130;28;20040;-79
2022/11/28 00:11:58;;;;;;;0.10;0.00;;;;;;;6.11;100.00;100797.09;5222573;28;20356;-80
2022/11/28 00:14:29;;;;;;;0.28;0.00;;;;;;;6.13;100.00;100795.22;5224229;28;20037;-80
2022/11/28 00:17:00;;;;;;;0.30;0.03;;;;;;;6.13;100.00;100792.56;5228092;28;20455;-80
2022/11/28 00:19:31;;;;;;;0.25;0.10;;;;;;;6.15;100.00;100794.16;5225506;28;20033;-80
2022/11/28 00:22:03;;;;;;;0.32;0.15;;;;;;;6.16;100.00;100784.44;5225289;28;20083;-80
2022/11/28 00:24:34;;;;;;;0.55;0.10;;;;;;;6.18;100.00;100785.19;5225901;28;20041;-80
2022/11/28 00:27:05;;;;;;;0.50;0.00;;;;;;;6.20;100.00;100789.47;5221867;28;20037;-80
2022/11/28 00:29:38;;;;;;;0.10;0.00;;;;;;;6.23;100.00;100796.34;5225687;28;20812;-80
2022/11/28 00:32:09;;;;;;;0.10;0.00;;;;;;;6.25;100.00;100779.44;5221080;28;20499;-80
2022/11/28 00:34:41;;;;;;;0.08;0.00;;;;;;;6.27;100.00;100776.69;5225972;28;20030;-80
2022/11/28 00:37:12;;;;;;;0.20;0.00;;;;;;;6.30;100.00;100767.72;5223329;28;20029;-80
2022/11/28 00:39:43;;;;;;;0.13;0.00;;;;;;;6.32;100.00;100779.06;5224321;28;20929;-81
2022/11/28 00:42:15;;;;;;;0.35;0.00;;;;;;;6.34;100.00;100772.72;5224004;28;20116;-80
2022/11/28 00:44:49;;;;;;;0.00;0.00;;;;;;;6.34;100.00;100787.78;5222035;28;20064;-80
2022/11/28 00:47:20;;;;;;;0.00;0.00;;;;;;;6.35;100.00;100777.09;5225042;28;20029;-80
2022/11/28 00:49:51;;;;;;;0.30;0.10;;;;;;;6.38;100.00;100768.09;5225536;28;20033;-80
2022/11/28 00:52:23;;;;;;;0.00;0.00;;;;;;;6.39;100.00;100765.38;5222712;28;20128;-80
2022/11/28 00:54:54;;;;;;;0.00;0.00;;;;;;;6.42;100.00;100769.63;5224422;28;20511;-81
2022/11/28 00:57:25;;;;;;;0.10;0.00;;;;;;;6.42;100.00;100762.53;5221275;28;20742;-78
2022/11/28 00:59:56;;;;;;;0.10;0.00;;;;;;;6.44;100.00;100763.31;5222412;28;20104;-79
2022/11/28 01:02:28;;;;;;;0.20;0.00;;;;;;;6.47;100.00;100764.91;5229828;28;20091;-79
2022/11/28 01:04:59;;;;;;;0.20;0.00;;;;;;;6.48;100.00;100770.13;5226036;28;20030;-80
2022/11/28 01:07:32;;;;;;;0.28;0.00;;;;;;;6.48;100.00;100771.88;5221508;28;20242;-80
2022/11/28 01:10:04;;;;;;;0.10;0.00;;;;;;;6.48;100.00;100770.13;5224121;28;20025;-80
2022/11/28 01:12:35;;;;;;;0.45;0.08;;;;;;;6.49;100.00;100763.00;5228031;28;20052;-79
2022/11/28 01:15:10;;;;;;;0.00;0.00;;;;;;;6.50;100.00;100774.44;5226108;28;20107;-80
2022/11/28 01:17:41;;;;;;;0.00;0.00;;;;;;;6.51;100.00;100755.81;5235962;28;20029;-79
2022/11/28 01:20:13;;;;;;;0.30;0.00;;;;;;;6.52;100.00;100764.59;5226746;28;20073;-79
2022/11/28 01:22:44;;;;;;;0.00;0.00;;;;;;;6.53;100.00;100761.88;5221244;28;20037;-80
2022/11/28 01:25:15;;;;;;;0.10;0.00;;;;;;;6.54;100.00;100763.59;5222229;28;20025;-79
2022/11/28 01:27:46;;;;;;;0.20;0.00;;;;;;;6.55;100.00;100762.63;5221795;28;20038;-79
2022/11/28 01:30:18;;;;;;;0.00;0.00;;;;;;;6.56;100.00;100766.13;5224061;28;20112;-80
2022/11/28 01:32:49;;;;;;;0.00;0.00;;;;;;;6.57;100.00;100768.69;5223778;28;20042;-79
2022/11/28 01:35:20;;;;;;;0.10;0.00;;;;;;;6.58;100.00;100761.59;5223656;28;20435;-80
2022/11/28 01:37:52;;;;;;;0.10;0.00;;;;;;;6.56;100.00;100771.44;5222468;28;20464;-80
2022/11/28 01:40:23;;;;;;;0.35;0.00;;;;;;;6.56;100.00;100772.31;5223669;28;20569;-80
2022/11/28 01:42:55;;;;;;;0.00;0.00;;;;;;;6.57;100.00;100771.34;5220621;28;20065;-80
2022/11/28 01:45:31;;;;;;;0.10;0.00;;;;;;;6.56;100.00;100774.94;5223140;28;20048;-79
2022/11/28 01:48:02;;;;;;;0.10;0.00;;;;;;;6.58;100.00;100766.91;5223778;28;20383;-78
2022/11/28 01:50:35;;;;;;;0.10;0.00;;;;;;;6.57;100.00;100766.03;5222609;28;20041;-79
2022/11/28 01:53:09;;;;;;;0.10;0.00;;;;;;;6.57;100.00;100770.50;5223801;28;20033;-77
2022/11/28 01:56:22;;;;;;;0.13;0.00;;;;;;;6.58;100.00;100764.25;5221817;28;20025;-78
2022/11/28 01:59:01;;;;;;;0.00;0.00;;;;;;;6.59;100.00;100771.25;5188554;28;20041;-78
2022/11/28 02:01:32;;;;;;;0.00;0.00;;;;;;;6.59;100.00;100763.31;5221292;28;20095;-78
2022/11/28 02:04:04;;;;;;;0.00;0.00;;;;;;;6.58;100.00;100761.59;5220206;28;20920;-78
2022/11/28 02:06:36;;;;;;;0.00;0.00;;;;;;;6.59;100.00;100752.69;5218999;28;20033;-79
2022/11/28 02:09:13;;;;;;;0.10;0.00;;;;;;;6.60;100.00;100757.91;5218447;28;20588;-79
2022/11/28 02:12:08;;;;;;;0.00;0.00;;;;;;;6.60;100.00;100749.94;5225209;28;20112;-79
2022/11/28 02:15:11;;;;;;;0.20;0.00;;;;;;;6.59;100.00;100748.25;5222977;28;20076;-78
2022/11/28 02:18:00;;;;;;;0.00;0.00;;;;;;;6.59;100.00;100742.09;5222900;28;20410;-78
2022/11/28 02:20:55;;;;;;;0.00;0.00;;;;;;;6.61;100.00;100745.50;5220882;28;20039;-79
2022/11/28 02:23:32;;;;;;;0.00;0.00;;;;;;;6.61;100.00;100746.34;5221393;28;20035;-78
2022/11/28 02:26:23;;;;;;;0.05;0.00;;;;;;;6.62;100.00;100745.41;5223931;28;20168;-78
2022/11/28 02:29:30;;;;;;;0.00;0.00;;;;;;;6.62;100.00;100752.53;5220935;28;20036;-78
2022/11/28 02:32:35;;;;;;;0.00;0.00;;;;;;;6.59;100.00;100745.59;5226811;28;20030;-78
2022/11/28 02:35:19;;;;;;;0.00;0.00;;;;;;;6.56;100.00;100745.78;5224644;28;20071;-76
2022/11/28 02:38:24;;;;;;;0.00;0.00;;;;;;;6.53;100.00;100737.19;5223528;28;20123;-77
2022/11/28 02:41:17;;;;;;;0.00;0.00;;;;;;;6.52;100.00;100740.75;5225524;28;20053;-77
2022/11/28 02:44:03;;;;;;;0.00;0.00;;;;;;;6.52;100.00;100746.94;5230894;28;20029;-77
2022/11/28 02:46:45;;;;;;;0.00;0.00;;;;;;;6.50;100.00;100740.88;5225574;28;20132;-77
2022/11/28 02:49:42;;;;;;;0.00;0.00;;;;;;;6.52;100.00;100741.63;5232973;28;20051;-76
2022/11/28 02:52:22;;;;;;;0.00;0.00;;;;;;;6.51;100.00;100741.72;5224479;28;20323;-77
2022/11/28 02:54:54;;;;;;;0.00;0.00;;;;;;;6.51;100.00;100733.78;5229307;28;20065;-76
2022/11/28 02:57:40;;;;;;;0.00;0.00;;;;;;;6.53;100.00;100742.47;5228530;28;20029;-76
2022/11/28 03:00:27;;;;;;;0.10;0.00;;;;;;;6.53;100.00;100743.31;5227755;28;20283;-76
2022/11/28 03:03:01;;;;;;;0.00;0.00;;;;;;;6.54;100.00;100730.91;5227549;28;20075;-76
2022/11/28 03:05:38;;;;;;;0.00;0.00;;;;;;;6.53;100.00;100730.06;5231269;28;20112;-76
2022/11/28 03:08:36;;;;;;;0.00;0.00;;;;;;;6.54;100.00;100733.56;5224824;28;20111;-76
2022/11/28 03:11:20;;;;;;;0.00;0.00;;;;;;;6.54;100.00;100729.13;5226792;28;20391;-76
2022/11/28 03:14:13;;;;;;;0.25;0.00;;;;;;;6.54;100.00;100725.59;5229219;28;20017;-76
2022/11/28 03:17:07;;;;;;;0.00;0.00;;;;;;;6.55;100.00;100722.03;5231219;28;20430;-76
2022/11/28 03:19:43;;;;;;;0.00;0.00;;;;;;;6.55;100.00;100728.16;5214274;28;20048;-76
2022/11/28 03:22:30;;;;;;;0.00;0.00;;;;;;;6.55;100.00;100722.88;5222479;28;20433;-76
2022/11/28 03:25:12;;;;;;;0.00;0.00;;;;;;;6.57;100.00;100720.13;5224473;28;20033;-76
2022/11/28 03:27:52;;;;;;;0.15;0.00;;;;;;;6.54;100.00;100718.53;5230666;28;20108;-76
2022/11/28 03:30:30;;;;;;;0.10;0.00;;;;;;;6.53;100.00;100721.28;5225116;28;20038;-76
2022/11/28 03:33:03;;;;;;;0.00;0.00;;;;;;;6.52;100.00;100716.91;5224473;28;20033;-76
2022/11/28 03:35:40;;;;;;;0.00;0.00;;;;;;;6.52;100.00;100724.84;5225381;28;20034;-76
2022/11/28 03:38:20;;;;;;;0.00;0.00;;;;;;;6.53;100.00;100724.75;5229760;28;20477;-76
2022/11/28 03:40:57;;;;;;;0.05;0.00;;;;;;;6.52;100.00;100720.44;5230360;28;20026;-76
2022/11/28 03:43:35;;;;;;;0.00;0.00;;;;;;;6.53;100.00;100721.28;5225415;28;20030;-76
2022/11/28 03:46:12;;;;;;;0.00;0.00;;;;;;;6.52;100.00;100720.44;5230537;28;20033;-76
2022/11/28 03:48:53;;;;;;;0.00;0.00;;;;;;;6.53;100.00;100714.16;5232808;28;20033;-76
2022/11/28 03:51:32;;;;;;;0.08;0.00;;;;;;;6.54;100.00;100722.97;5232429;28;20032;-76
2022/11/28 03:54:17;;;;;;;0.00;0.00;;;;;;;6.52;100.00;100715.13;5229767;28;20053;-76
2022/11/28 03:56:56;;;;;;;0.00;0.00;;;;;;;6.51;100.00;100717.88;5230535;28;20044;-76
2022/11/28 03:59:42;;;;;;;0.00;0.00;;;;;;;6.51;100.00;100723.16;5228761;28;20037;-76
2022/11/28 04:02:42;;;;;;;0.00;0.00;;;;;;;6.50;100.00;100722.31;5230646;28;20038;-76
2022/11/28 04:05:23;;;;;;;0.00;0.00;;;;;;;6.50;100.00;100713.50;5230084;28;20045;-76
2022/11/28 04:08:16;;;;;;;0.00;0.00;;;;;;;6.51;100.00;100724.00;5228139;28;20033;-76
2022/11/28 04:10:59;;;;;;;0.00;0.00;;;;;;;6.50;100.00;100721.44;5225724;28;20109;-76
2022/11/28 04:13:47;;;;;;;0.00;0.00;;;;;;;6.51;100.00;100724.00;5221391;28;20029;-76
2022/11/28 04:16:21;;;;;;;0.00;0.00;;;;;;;6.52;100.00;100714.25;5223265;28;20153;-76
2022/11/28 04:18:59;;;;;;;0.00;0.00;;;;;;;6.53;100.00;100726.56;5219723;28;20033;-76
2022/11/28 04:21:30;;;;;;;0.00;0.00;;;;;;;6.52;100.00;100719.56;5220869;28;20039;-76
2022/11/28 04:24:07;;;;;;;0.00;0.00;;;;;;;6.52;100.00;100728.38;5228357;28;20487;-76
2022/11/28 04:26:44;;;;;;;0.00;0.00;;;;;;;6.50;100.00;100730.28;5227042;28;20851;-76
2022/11/28 04:29:19;;;;;;;0.00;0.00;;;;;;;6.50;100.00;100726.75;5226198;28;20113;-76
2022/11/28 04:31:55;;;;;;;0.10;0.00;;;;;;;6.51;100.00;100731.13;5227157;28;20530;-75
2022/11/28 04:34:29;;;;;;;0.00;0.00;;;;;;;6.51;100.00;100724.00;5224280;28;20025;-76
2022/11/28 04:37:02;;;;;;;0.20;0.00;;;;;;;6.52;100.00;100727.50;5225140;28;20029;-75
2022/11/28 04:39:36;;;;;;;0.00;0.00;;;;;;;6.51;100.00;100731.97;5227550;28;20296;-76
2022/11/28 04:42:15;;;;;;;0.00;0.00;;;;;;;6.51;100.00;100729.31;5225785;28;20041;-76
2022/11/28 04:45:03;;;;;;;0.20;0.00;;;;;;;6.53;100.00;100721.28;5229595;28;20026;-75
2022/11/28 04:47:34;;;;;;;0.00;0.00;;;;;;;6.55;100.00;100722.03;5226790;28;20480;-75
2022/11/28 04:50:06;;;;;;;0.10;0.00;;;;;;;6.54;100.00;100729.13;5228436;28;20033;-75
2022/11/28 04:53:15;;;;;;;0.00;0.00;;;;;;;6.54;100.00;100722.97;5225318;28;20037;-76
2022/11/28 04:55:54;;;;;;;0.15;0.00;;;;;;;6.53;100.00;100723.91;5215993;28;20053;-76
2022/11/28 04:58:33;;;;;;;0.00;0.00;;;;;;;6.54;100.00;100721.19;5225707;28;20498;-76
2022/11/28 05:01:08;;;;;;;0.00;0.00;;;;;;;6.54;100.00;100720.31;5223543;28;20557;-75
2022/11/28 05:03:40;;;;;;;0.10;0.00;;;;;;;6.52;100.00;100715.13;5225856;28;20029;-75
2022/11/28 05:06:25;;;;;;;0.00;0.00;;;;;;;6.52;100.00;100731.03;5225366;28;20443;-75
2022/11/28 05:08:57;;;;;;;0.00;0.00;;;;;;;6.53;100.00;100726.56;5224128;28;20044;-75
2022/11/28 05:11:29;;;;;;;0.00;0.00;;;;;;;6.53;100.00;100729.22;5229224;28;20028;-75
2022/11/28 05:14:00;;;;;;;1.27;0.00;;;;;;;6.54;100.00;100729.13;5223806;28;20040;-75
2022/11/28 05:16:32;;;;;;;0.38;0.00;;;;;;;6.54;100.00;100731.78;5229451;28;20072;-76
2022/11/28 05:19:03;;;;;;;0.00;0.00;;;;;;;6.54;100.00;100734.44;5226038;28;20445;-76
2022/11/28 05:21:34;;;;;;;0.13;0.00;;;;;;;6.55;100.00;100730.81;5220828;28;20021;-75
2022/11/28 05:24:06;;;;;;;0.00;0.00;;;;;;;6.56;100.00;100726.38;5224352;28;20162;-76
2022/11/28 05:26:37;;;;;;;0.00;0.00;;;;;;;6.57;100.00;100723.63;5222621;28;20065;-75
2022/11/28 05:29:09;;;;;;;0.00;0.00;;;;;;;6.58;100.00;100728.00;5218587;28;20044;-76
2022/11/28 05:31:40;;;;;;;0.00;0.00;;;;;;;6.59;100.00;100739.44;5219852;28;20052;-76
2022/11/28 05:34:11;;;;;;;0.03;0.00;;;;;;;6.59;100.00;100731.50;5221445;28;20036;-75
2022/11/28 05:36:42;;;;;;;0.00;0.00;;;;;;;6.59;100.00;100739.44;5213729;28;20037;-76
2022/11/28 05:39:14;;;;;;;0.00;0.00;;;;;;;6.59;100.00;100742.09;5220437;28;20084;-76
2022/11/28 05:41:45;;;;;;;0.00;0.00;;;;;;;6.61;100.00;100742.84;5216933;28;20033;-76
2022/11/28 05:44:16;;;;;;;0.00;0.00;;;;;;;6.62;100.00;100739.25;5220658;28;20040;-76
2022/11/28 05:46:48;;;;;;;0.00;0.00;;;;;;;6.64;100.00;100746.16;5221678;28;20120;-75
2022/11/28 05:49:22;;;;;;;0.00;0.00;;;;;;;6.64;100.00;100740.03;5220575;28;21683;-76
2022/11/28 05:51:54;;;;;;;0.00;0.00;;;;;;;6.65;100.00;100739.06;5225255;28;20036;-76
2022/11/28 05:54:25;;;;;;;0.00;0.00;;;;;;;6.66;100.00;100743.44;5225418;28;20058;-75
2022/11/28 05:56:56;;;;;;;0.00;0.00;;;;;;;6.67;100.00;100734.50;5220555;28;20380;-76
2022/11/28 05:59:28;;;;;;;0.00;0.00;;;;;;;6.66;100.00;100735.47;5221339;28;21309;-76
2022/11/28 06:01:59;;;;;;;0.00;0.00;;;;;;;6.65;100.00;100734.63;5219965;28;20033;-76
2022/11/28 06:04:30;;;;;;;0.00;0.00;;;;;;;6.66;100.00;100736.31;5225890;28;20071;-75
2022/11/28 06:07:02;;;;;;;0.00;0.00;;;;;;;6.70;100.00;100738.78;5222230;28;20033;-75
2022/11/28 06:09:33;;;;;;;0.00;0.00;;;;;;;6.71;100.00;100732.53;5220210;28;20466;-75
2022/11/28 06:12:04;;;;;;;0.00;0.00;;;;;;;6.72;100.00;100732.44;5220114;28;20077;-76
2022/11/28 06:14:36;;;;;;;0.00;0.00;;;;;;;6.72;100.00;100742.19;5220165;28;20468;-76
2022/11/28 06:17:07;;;;;;;0.00;0.00;;;;;;;6.72;100.00;100744.84;5226527;28;20037;-75
2022/11/28 06:19:39;;;;;;;0.00;0.00;;;;;;;6.72;100.00;100743.03;5224650;28;20034;-75
2022/11/28 06:22:10;;;;;;;0.00;0.00;;;;;;;6.71;100.00;100741.31;5224670;28;20107;-75
2022/11/28 06:24:41;;;;;;;0.00;0.00;;;;;;;6.72;100.00;100748.34;5221634;28;20136;-75
2022/11/28 06:27:13;;;;;;;0.13;0.00;;;;;;;6.75;100.00;100742.84;5223283;28;20037;-75
2022/11/28 06:29:44;;;;;;;0.00;0.00;;;;;;;6.76;100.00;100755.16;5223514;28;20049;-76
2022/11/28 06:32:15;;;;;;;0.00;0.00;;;;;;;6.76;100.00;100755.16;5226909;28;20364;-76
2022/11/28 06:34:46;;;;;;;0.03;0.00;;;;;;;6.76;100.00;100752.50;5224078;28;20034;-76
2022/11/28 06:37:18;;;;;;;0.00;0.00;;;;;;;6.77;100.00;100751.56;5221831;28;20025;-76
2022/11/28 06:39:50;;;;;;;0.10;0.00;;;;;;;6.77;100.00;100751.56;5223705;28;20037;-76
2022/11/28 06:42:21;;;;;;;0.20;0.00;;;;;;;6.78;100.00;100763.03;5220315;28;20033;-75
2022/11/28 06:44:53;;;;;;;0.08;0.00;;;;;;;6.78;100.00;100758.56;5223711;28;21389;-76
2022/11/28 06:47:24;;;;;;;0.00;0.00;;;;;;;6.80;100.00;100756.66;5225877;28;20884;-76
2022/11/28 06:49:55;;;;;;;0.00;0.00;;;;;;;6.83;100.00;100751.19;5225002;28;20117;-75
2022/11/28 06:52:27;;;;;;;0.00;0.00;;;;;;;6.84;100.00;100757.31;5221943;28;20791;-75
2022/11/28 06:54:58;;;;;;;0.00;0.00;;;;;;;6.86;100.00;100755.44;5223484;28;20132;-76
2022/11/28 06:57:31;;;;;;;0.10;0.00;;;;;;;6.87;100.00;100757.16;5218708;28;20029;-76
2022/11/28 07:00:03;;;;;;;0.10;0.00;;;;;;;6.86;100.00;100763.38;5222397;28;20556;-75
2022/11/28 07:02:35;;;;;;;0.10;0.00;;;;;;;6.86;100.00;100760.72;5219054;28;20642;-76
2022/11/28 07:05:06;;;;;;;0.10;0.00;;;;;;;6.88;100.00;100764.13;5224555;28;20029;-76
2022/11/28 07:07:38;;;;;;;0.00;0.00;;;;;;;6.89;100.00;100759.72;5223684;28;20038;-76
2022/11/28 07:10:10;;;;;;;0.00;0.00;;;;;;;6.90;100.00;100766.72;5221845;28;20029;-76
2022/11/28 07:12:41;;;;;;;0.00;0.00;;;;;;;6.91;100.00;100763.97;5223373;28;20113;-75
2022/11/28 07:15:12;;;;;;;0.08;0.00;;;;;;;6.92;100.00;100772.75;5226230;28;20049;-75
2022/11/28 07:17:43;;;;;;;0.00;0.00;;;;;;;6.91;100.00;100768.41;5235618;28;20029;-75
2022/11/28 07:20:15;;;;;;;0.45;0.00;;;;;;;6.91;100.00;100769.25;5230354;28;20494;-76
2022/11/28 07:22:47;;;;;;;0.00;0.00;;;;;;;6.92;100.00;100776.25;5234062;28;20030;-75
2022/11/28 07:25:18;;;;;;;0.00;0.00;;;;;;;6.93;100.00;100771.81;5240803;28;20345;-76
2022/11/28 07:27:50;;;;;;;0.00;0.00;;;;;;;6.91;100.00;100773.72;5223622;28;20036;-76
2022/11/28 07:30:22;;;;;;;0.00;0.00;;;;;;;6.92;100.00;100767.47;5224803;28;20671;-75
2022/11/28 07:32:53;;;;;;;0.35;0.00;;;;;;;6.92;100.00;100772.75;5227930;28;20030;-76
2022/11/28 07:35:24;;;;;;;0.00;0.00;;;;;;;6.92;100.00;100776.25;5223735;28;20466;-76
2022/11/28 07:37:55;;;;;;;0.10;0.00;;;;;;;6.90;100.00;100783.47;5224137;28;20519;-75
2022/11/28 07:40:27;;;;;;;0.28;0.00;;;;;;;6.91;100.00;100777.22;5224868;28;20476;-76
2022/11/28 07:42:58;;;;;;;0.28;0.00;;;;;;;6.93;100.00;100783.28;5221793;28;20025;-76
2022/11/28 07:45:29;;;;;;;0.00;0.00;;;;;;;6.96;100.00;100779.56;5224077;28;20131;-76
2022/11/28 07:48:00;;;;;;;0.00;0.00;;;;;;;6.98;100.00;100790.94;5226236;28;21641;-75
2022/11/28 07:50:32;;;;;;;0.20;0.00;;;;;;;7.01;100.00;100793.41;5227732;28;20033;-75
2022/11/28 07:53:03;;;;;;;0.00;0.00;;;;;;;6.97;100.00;100792.75;5222098;28;20120;-76
2022/11/28 07:55:35;;;;;;;0.10;0.00;;;;;;;6.99;100.00;100792.66;5220841;28;20178;-76
2022/11/28 07:58:06;;;;;;;0.00;0.00;;;;;;;6.99;100.00;100800.63;5225658;28;20048;-76
2022/11/28 08:00:38;;;;;;;0.00;0.00;;;;;;;7.00;100.00;100803.19;5224644;28;20076;-76
2022/11/28 08:03:09;;;;;;;0.00;0.00;;;;;;;6.99;100.00;100809.41;5222762;28;20029;-76
2022/11/28 08:05:48;;;;;;;0.13;0.00;;;;;;;7.01;100.00;100799.56;5226413;28;20045;-76
2022/11/28 08:08:19;;;;;;;0.00;0.00;;;;;;;7.01;100.00;100799.56;5223922;28;20112;-76
2022/11/28 08:10:50;;;;;;;0.10;0.00;;;;;;;7.03;100.00;100802.13;5225798;28;20029;-76
2022/11/28 08:13:22;;;;;;;0.00;0.00;;;;;;;7.06;100.00;100802.78;5227124;28;20152;-75
2022/11/28 08:15:53;;;;;;;0.00;0.00;;;;;;;7.08;100.00;100805.34;5226504;28;20125;-76
2022/11/28 08:18:24;;;;;;;0.00;0.00;;;;;;;7.11;100.00;100806.94;5222769;28;20033;-75
2022/11/28 08:21:07;;;;;;;0.00;0.00;;;;;;;7.10;100.00;100815.88;5224157;28;20029;-75
2022/11/28 08:23:39;;;;;;;0.08;0.00;;;;;;;7.07;100.00;100822.22;5224751;28;20036;-75
2022/11/28 08:26:13;;;;;;;0.15;0.00;;;;;;;7.07;100.00;100816.91;5227487;28;20037;-75
2022/11/28 08:28:45;;;;;;;0.00;0.00;;;;;;;7.08;100.00;100818.63;5225947;28;20498;-76
2022/11/28 08:31:22;;;;;;;0.00;0.00;;;;;;;7.11;100.00;100818.41;5225162;28;20610;-76
2022/11/28 08:33:55;;;;;;;0.08;0.00;;;;;;;7.14;100.00;100820.03;5228812;28;20122;-75
2022/11/28 08:36:27;;;;;;;0.00;0.00;;;;;;;7.14;100.00;100812.91;5227138;28;20426;-76
2022/11/28 08:39:00;;;;;;;0.17;0.00;;;;;;;7.15;100.00;100817.28;5226649;28;20630;-75
2022/11/28 08:41:31;;;;;;;0.00;0.00;;;;;;;7.15;100.00;100817.28;5228188;28;20541;-76
2022/11/28 08:44:02;;;;;;;0.00;0.00;;;;;;;7.17;100.00;100826.00;5223929;28;20029;-75
2022/11/28 08:46:35;;;;;;;0.00;0.00;;;;;;;7.19;100.00;100821.47;5236470;28;20037;-75
2022/11/28 08:49:06;;;;;;;0.00;0.00;;;;;;;7.22;100.00;100829.22;5237540;28;20021;-76
2022/11/28 08:51:37;;;;;;;0.10;0.00;;;;;;;7.23;100.00;100830.94;5238682;28;20770;-76
2022/11/28 08:54:09;;;;;;;0.22;0.00;;;;;;;7.25;100.00;100830.84;5233611;28;20060;-75
2022/11/28 08:56:40;;;;;;;0.10;0.00;;;;;;;7.23;100.00;100820.31;5233158;28;20056;-75
2022/11/28 08:59:11;;;;;;;0.00;0.00;;;;;;;7.26;100.00;100819.25;5232378;28;20028;-76
2022/11/28 09:01:42;;;;;;;0.00;0.00;;;;;;;7.25;100.00;100812.25;5233951;28;20035;-76
2022/11/28 09:04:14;;;;;;;0.08;0.00;;;;;;;7.27;100.00;100818.31;5228076;28;20030;-75
2022/11/28 09:06:45;;;;;;;0.10;0.00;;;;;;;7.30;100.00;100827.88;5234453;28;20025;-75
2022/11/28 09:09:17;;;;;;;0.00;0.00;;;;;;;7.32;100.00;100825.97;5232743;28;20029;-75
2022/11/28 09:11:48;;;;;;;0.00;0.00;;;;;;;7.33;100.00;100822.41;5231232;28;20036;-75
2022/11/28 09:14:20;;;;;;;0.00;0.00;;;;;;;7.34;100.00;100827.56;5226229;28;20026;-75
2022/11/28 09:16:51;;;;;;;0.00;0.00;;;;;;;7.36;100.00;100832.78;5236325;28;20459;-75
2022/11/28 09:19:22;;;;;;;0.00;0.00;;;;;;;7.39;100.00;100837.91;5235659;28;20056;-75
2022/11/28 09:21:54;;;;;;;0.20;0.00;;;;;;;7.41;100.00;100836.03;5234762;28;20033;-76
2022/11/28 09:24:25;;;;;;;0.00;0.00;;;;;;;7.43;100.00;100839.44;5234169;28;20029;-75
2022/11/28 09:26:56;;;;;;;0.08;0.00;;;;;;;7.44;100.00;100839.34;5229495;28;20033;-75
2022/11/28 09:29:28;;;;;;;5.57;0.10;;;;;;;7.44;100.00;100847.31;5227150;28;20094;-75
2022/11/28 09:31:59;;;;;;;0.00;0.00;;;;;;;7.44;100.00;100846.44;5233206;28;20068;-75
2022/11/28 09:34:30;;;;;;;0.00;0.00;;;;;;;7.43;100.00;100842.09;5235531;28;20026;-75
2022/11/28 09:37:02;;;;;;;0.00;0.00;;;;;;;7.46;100.00;100850.72;5233053;28;20064;-75
2022/11/28 09:39:33;;;;;;;0.00;0.00;;;;;;;7.47;100.00;100835.63;5233004;28;20495;-75
2022/11/28 09:42:15;;;;;;;0.32;0.00;;;;;;;7.47;100.00;100840.94;5237190;28;20636;-75
2022/11/28 09:44:54;;;;;;;0.00;0.00;;;;;;;7.49;100.00;100841.69;5232133;28;20124;-75
2022/11/28 09:47:29;;;;;;;0.00;0.00;;;;;;;7.53;100.00;100842.34;5230635;28;20498;-75
2022/11/28 09:50:14;;;;;;;0.00;0.00;;;;;;;7.55;100.00;100843.94;5226101;28;20412;-74
2022/11/28 09:52:55;;;;;;;0.10;0.00;;;;;;;7.58;100.00;100843.75;5235841;28;20068;-76
2022/11/28 09:55:48;;;;;;;0.00;0.00;;;;;;;7.62;100.00;100855.88;5237609;28;20180;-75
2022/11/28 09:58:34;;;;;;;0.00;0.00;;;;;;;7.63;100.00;100854.94;5230576;28;20106;-75
2022/11/28 10:01:19;;;;;;;0.00;0.00;;;;;;;7.63;100.00;100852.28;5226786;28;20034;-75
2022/11/28 10:04:06;;;;;;;0.00;0.00;;;;;;;7.67;100.00;100852.94;5230086;28;20033;-75
2022/11/28 10:07:00;;;;;;;0.10;0.00;;;;;;;7.69;100.00;100850.19;5229484;28;20021;-76
2022/11/28 10:10:15;;;;;;;0.00;0.00;;;;;;;7.69;100.00;100844.84;5229870;28;20025;-75
2022/11/28 10:12:58;;;;;;;0.08;0.00;;;;;;;7.70;100.00;100850.09;5228418;28;20049;-75
2022/11/28 10:15:32;;;;;;;0.30;0.00;;;;;;;7.74;100.00;100843.63;5236931;28;20187;-75
2022/11/28 10:18:18;;;;;;;0.00;0.00;;;;;;;7.77;100.00;100858.53;5227351;28;20503;-75
2022/11/28 10:20:56;;;;;;;0.00;0.00;;;;;;;7.79;100.00;100848.66;5228337;28;20037;-75
2022/11/28 10:23:37;;;;;;;0.00;0.00;;;;;;;7.80;100.00;100843.22;5233757;28;20025;-75
2022/11/28 10:26:28;;;;;;;0.10;0.00;;;;;;;7.84;100.00;100843.88;5233374;28;20472;-75
2022/11/28 10:29:04;;;;;;;0.00;0.00;;;;;;;7.85;100.00;100856.22;5229228;28;20033;-75
2022/11/28 10:31:40;;;;;;;2.30;0.00;;;;;;;7.87;100.00;100848.16;5233427;28;20034;-75
2022/11/28 10:34:35;;;;;;;0.00;0.00;;;;;;;7.92;100.00;100848.69;5233844;28;20538;-75
2022/11/28 10:37:23;;;;;;;0.43;0.00;;;;;;;7.91;100.00;100837.22;5232252;28;20033;-76
2022/11/28 10:39:56;;;;;;;0.03;0.00;;;;;;;7.96;100.00;100850.22;5234924;28;20468;-76
2022/11/28 10:42:38;;;;;;;3.10;0.05;;;;;;;7.99;100.00;100842.88;5230539;28;20467;-76
2022/11/28 10:45:31;;;;;;;0.10;0.00;;;;;;;8.03;100.00;100855.03;5231156;28;20451;-75
2022/11/28 10:48:25;;;;;;;0.00;0.00;;;;;;;8.02;100.00;100858.63;5225156;28;20074;-75
2022/11/28 10:51:18;;;;;;;0.00;0.00;;;;;;;8.02;100.00;100858.63;5229870;28;20024;-76
2022/11/28 10:54:25;;;;;;;0.08;0.00;;;;;;;8.04;100.00;100872.66;5230454;28;20053;-76
2022/11/28 10:57:10;;;;;;;0.00;0.00;;;;;;;8.02;100.00;100866.59;5228301;28;20375;-76
2022/11/28 11:00:19;;;;;;;0.10;0.00;;;;;;;8.02;100.00;100866.59;5233416;28;20040;-75
2022/11/28 11:02:55;;;;;;;0.00;0.00;;;;;;;8.03;100.00;100865.66;5234493;28;20482;-76
2022/11/28 11:05:32;;;;;;;1.02;0.00;;;;;;;8.02;100.00;100869.25;5229030;28;20402;-75
2022/11/28 11:08:13;;;;;;;0.03;0.03;;;;;;;8.01;100.00;100866.69;5224777;28;20533;-75
2022/11/28 11:10:50;;;;;;;0.00;0.00;;;;;;;8.00;100.00;100865.84;5232121;28;20067;-75
2022/11/28 11:13:28;;;;;;;0.00;0.00;;;;;;;8.02;100.00;100861.28;5227330;28;20029;-76
2022/11/28 11:16:06;;;;;;;0.00;0.00;;;;;;;8.01;100.00;100861.38;5227595;28;20045;-75
2022/11/28 11:18:44;;;;;;;0.10;0.00;;;;;;;8.02;100.00;100857.78;5235564;28;20032;-75
2022/11/28 11:21:19;;;;;;;0.00;0.00;;;;;;;8.04;100.00;100855.88;5229793;28;20527;-76
2022/11/28 11:24:10;;;;;;;0.00;0.00;;;;;;;8.06;100.00;100861.94;5231776;28;20036;-75
2022/11/28 11:26:44;;;;;;;0.00;0.00;;;;;;;8.07;100.00;100860.13;5233310;28;20426;-76
2022/11/28 11:29:20;;;;;;;;;;;;;;;8.04;100.00;100862.03;5237638;28;20570;-75
2022/11/28 11:31:52;;;;;;;0.00;0.00;;;;;;;8.07;100.00;100858.31;5236856;28;20319;-76
2022/11/28 11:34:23;;;;;;;0.30;0.00;;;;;;;8.09;100.00;100847.56;5229491;28;20361;-76
2022/11/28 11:37:19;;;;;;;0.00;0.00;;;;;;;8.11;100.00;100856.28;5234271;28;20029;-76
2022/11/28 11:39:52;;;;;;;0.10;0.00;;;;;;;8.13;100.00;100852.59;5229170;28;20024;-76
2022/11/28 11:42:28;;;;;;;0.00;0.00;;;;;;;8.17;100.00;100858.53;5229400;28;20095;-76
2022/11/28 11:45:27;;;;;;;0.00;0.00;;;;;;;8.20;100.00;100853.03;5230884;28;20116;-76
2022/11/28 11:47:59;;;;;;;0.00;0.00;;;;;;;8.22;100.00;100851.97;5228129;28;20021;-76
2022/11/28 11:50:31;;;;;;;0.00;0.00;;;;;;;8.25;100.00;100851.78;5234843;28;20022;-76
2022/11/28 11:53:12;;;;;;;0.00;0.00;;;;;;;8.28;100.00;100848.06;5231831;28;20033;-76
2022/11/28 11:55:52;;;;;;;0.88;0.00;;;;;;;8.30;100.00;100856.78;5235643;28;20044;-76
2022/11/28 11:58:27;;;;;;;0.00;0.00;;;;;;;8.31;100.00;100857.66;5231822;28;20343;-76
2022/11/28 12:00:59;;;;;;;0.22;0.00;;;;;;;8.34;100.00;100862.75;5230932;28;20030;-76
2022/11/28 12:03:53;;;;;;;0.00;0.00;;;;;;;8.32;100.00;100862.88;5228114;28;20120;-76
2022/11/28 12:06:33;;;;;;;0.00;0.00;;;;;;;8.33;100.00;100866.38;5235885;28;20663;-76
2022/11/28 12:09:39;;;;;;;0.17;0.00;;;;;;;8.34;100.00;100873.38;5233998;28;20433;-76